Time;durP1;ratioP1;P1;durP2;ratioP2;P2;SDS_P1;SDS_P2;PMS_P1;PMS_P2;Temp;Humidity;BMP_temperature;BMP_pressure;BME280_temperature;BME280_humidity;BME280_pressure;Samples;Min_cycle;Max_cycle;Signal;HPM_P1;HPM_P2
2024/01/01 00:00:38;;;;;;;15.33;6.73;;;9.40;99.90;;;;;;5034162;28;20253;-72
2024/01/01 00:03:03;;;;;;;12.57;7.33;;;9.40;99.90;;;;;;5034396;28;20172;-71
2024/01/01 00:05:29;;;;;;;19.57;8.27;;;9.40;99.90;;;;;;5042678;28;20268;-72
2024/01/01 00:07:55;;;;;;;17.03;8.70;;;9.40;99.90;;;;;;5052300;28;20530;-72
2024/01/01 00:10:21;;;;;;;9.57;6.63;;;9.40;99.90;;;;;;5054033;28;20175;-71
2024/01/01 00:12:47;;;;;;;10.23;7.20;;;9.40;99.90;;;;;;5053939;28;20262;-72
2024/01/01 00:15:13;;;;;;;11.73;6.53;;;9.40;99.90;;;;;;5036156;28;20227;-71
2024/01/01 00:17:39;;;;;;;11.67;7.33;;;9.40;99.90;;;;;;5034454;28;20176;-72
2024/01/01 00:20:06;;;;;;;6.63;5.33;;;9.40;99.90;;;;;;5044845;28;20626;-71
2024/01/01 00:22:32;;;;;;;11.67;5.50;;;9.40;99.90;;;;;;5053680;28;20183;-71
2024/01/01 00:25:00;;;;;;;8.60;5.03;;;9.40;99.90;;;;;;5053524;28;20183;-72
2024/01/01 00:27:26;;;;;;;10.73;5.63;;;9.50;99.90;;;;;;5053650;28;20301;-72
2024/01/01 00:29:52;;;;;;;8.17;5.20;;;9.40;99.90;;;;;;5054147;28;20304;-72
2024/01/01 00:32:18;;;;;;;12.10;11.10;;;9.40;99.90;;;;;;5054153;28;20537;-71
2024/01/01 00:34:46;;;;;;;9.37;6.07;;;9.30;99.90;;;;;;5044112;28;20206;-73
2024/01/01 00:37:11;;;;;;;7.03;5.17;;;9.30;99.90;;;;;;5033602;28;20171;-72
2024/01/01 00:39:38;;;;;;;9.03;5.13;;;9.40;99.90;;;;;;5033666;28;20644;-72
2024/01/01 00:42:04;;;;;;;7.00;4.70;;;9.40;99.90;;;;;;5034122;28;20167;-73
2024/01/01 00:44:31;;;;;;;11.23;5.53;;;9.40;99.90;;;;;;5034046;28;20567;-72
2024/01/01 00:46:58;;;;;;;7.90;4.53;;;9.40;99.90;;;;;;5033501;28;20628;-72
2024/01/01 00:49:23;;;;;;;5.37;4.60;;;9.40;99.90;;;;;;5033264;28;20167;-73
2024/01/01 00:51:49;;;;;;;6.20;4.90;;;9.40;99.90;;;;;;5015600;28;20523;-72
2024/01/01 00:54:15;;;;;;;7.50;4.20;;;9.40;99.90;;;;;;5033183;28;20195;-72
2024/01/01 00:56:40;;;;;;;9.60;5.87;;;9.40;99.90;;;;;;5039939;28;20205;-72
2024/01/01 00:59:06;;;;;;;9.07;4.90;;;9.40;99.90;;;;;;5053377;28;20281;-72
2024/01/01 01:01:31;;;;;;;11.13;6.10;;;9.40;99.90;;;;;;5051301;28;20257;-72
2024/01/01 01:03:57;;;;;;;7.70;5.03;;;9.40;99.90;;;;;;5052800;28;20250;-72
2024/01/01 01:06:23;;;;;;;8.03;4.63;;;9.40;99.90;;;;;;5052366;28;20249;-72
2024/01/01 01:08:48;;;;;;;6.20;4.73;;;9.40;99.90;;;;;;5043890;28;20309;-72
2024/01/01 01:11:14;;;;;;;8.07;4.43;;;9.40;99.90;;;;;;5014938;28;20678;-72
2024/01/01 01:13:40;;;;;;;10.00;4.40;;;9.40;99.90;;;;;;5032784;28;20658;-73
2024/01/01 01:16:05;;;;;;;10.57;4.30;;;9.40;99.90;;;;;;5032399;28;20243;-72
2024/01/01 01:18:31;;;;;;;6.97;4.10;;;9.40;99.90;;;;;;5032543;28;20175;-72
2024/01/01 01:20:57;;;;;;;13.80;3.93;;;9.30;99.90;;;;;;5032562;28;20579;-72
2024/01/01 01:23:23;;;;;;;12.67;5.43;;;9.40;99.90;;;;;;5039490;28;20190;-72
2024/01/01 01:25:49;;;;;;;7.50;5.00;;;9.40;99.90;;;;;;5034387;28;20203;-72
2024/01/01 01:28:24;;;;;;;8.57;4.37;;;9.40;99.90;;;;;;5052863;28;20171;-72
2024/01/01 01:30:50;;;;;;;9.53;3.97;;;9.40;99.90;;;;;;5051319;28;20186;-72
2024/01/01 01:33:16;;;;;;;5.90;4.20;;;9.40;99.90;;;;;;5052070;28;20171;-72
2024/01/01 01:35:42;;;;;;;8.07;4.33;;;9.40;99.90;;;;;;5051359;28;20202;-72
2024/01/01 01:38:08;;;;;;;6.87;3.50;;;9.40;99.90;;;;;;5052096;28;20233;-72
2024/01/01 01:40:33;;;;;;;7.47;3.80;;;9.40;99.90;;;;;;5052080;28;20210;-72
2024/01/01 01:42:59;;;;;;;10.60;4.93;;;9.40;99.90;;;;;;5052377;28;20193;-72
2024/01/01 01:45:25;;;;;;;6.63;4.00;;;9.40;99.90;;;;;;5051382;28;20198;-72
2024/01/01 01:47:52;;;;;;;14.93;4.50;;;9.40;99.90;;;;;;5052316;28;20697;-73
2024/01/01 01:50:17;;;;;;;7.30;3.93;;;9.40;99.90;;;;;;5052261;28;20167;-72
2024/01/01 01:52:44;;;;;;;9.47;3.90;;;9.40;99.90;;;;;;5051731;28;20190;-72
2024/01/01 01:55:12;;;;;;;4.47;3.80;;;9.40;99.90;;;;;;5051765;28;20546;-72
2024/01/01 01:57:40;;;;;;;6.63;4.23;;;9.40;99.90;;;;;;5045748;28;20187;-72
2024/01/01 02:00:07;;;;;;;7.70;4.97;;;9.30;99.90;;;;;;5014442;28;20603;-72
2024/01/01 02:02:35;;;;;;;13.90;5.00;;;9.30;99.90;;;;;;5031832;28;20264;-72
2024/01/01 02:05:04;;;;;;;10.20;5.67;;;9.30;99.90;;;;;;5049526;28;20198;-72
2024/01/01 02:07:30;;;;;;;11.47;5.33;;;9.20;99.90;;;;;;5052441;28;20254;-71
2024/01/01 02:09:56;;;;;;;9.67;4.50;;;9.10;99.90;;;;;;5047353;28;20191;-72
2024/01/01 02:12:21;;;;;;;10.87;5.53;;;8.90;99.90;;;;;;5032061;28;20176;-72
2024/01/01 02:14:48;;;;;;;13.37;9.07;;;8.60;99.90;;;;;;5031526;28;20199;-73
2024/01/01 02:17:15;;;;;;;8.83;4.80;;;8.30;99.90;;;;;;5031614;28;20173;-72
2024/01/01 02:19:41;;;;;;;11.80;4.73;;;8.00;99.90;;;;;;5032887;28;20207;-71
2024/01/01 02:22:07;;;;;;;11.17;4.57;;;7.80;99.90;;;;;;5031380;28;20723;-72
2024/01/01 02:24:33;;;;;;;10.90;4.40;;;7.70;99.90;;;;;;5031486;28;20179;-72
2024/01/01 02:26:58;;;;;;;7.20;4.70;;;7.50;99.90;;;;;;5031316;28;20175;-72
2024/01/01 02:29:24;;;;;;;10.47;4.43;;;7.40;99.90;;;;;;5031456;28;20175;-72
2024/01/01 02:31:50;;;;;;;14.77;5.00;;;7.30;99.90;;;;;;5031390;28;20172;-71
2024/01/01 02:34:17;;;;;;;7.00;4.37;;;7.20;99.90;;;;;;5031333;28;20175;-72
2024/01/01 02:36:43;;;;;;;11.17;4.50;;;7.10;99.90;;;;;;5031047;28;20720;-72
2024/01/01 02:39:12;;;;;;;14.73;5.07;;;7.10;99.90;;;;;;5031064;28;20241;-72
2024/01/01 02:41:39;;;;;;;9.20;4.37;;;7.10;99.90;;;;;;5048627;28;20175;-72
2024/01/01 02:44:05;;;;;;;8.00;4.40;;;7.00;99.90;;;;;;5033169;28;20171;-72
2024/01/01 02:46:31;;;;;;;15.13;4.80;;;7.00;99.90;;;;;;5050780;28;20274;-72
2024/01/01 02:48:56;;;;;;;8.60;4.07;;;7.00;99.90;;;;;;5050998;28;20246;-72
2024/01/01 02:51:22;;;;;;;5.93;4.60;;;7.00;99.90;;;;;;5051175;28;20179;-72
2024/01/01 02:53:48;;;;;;;12.23;4.80;;;7.00;99.90;;;;;;5039963;28;20186;-72
2024/01/01 02:56:24;;;;;;;9.03;4.40;;;7.00;99.90;;;;;;5030901;28;20194;-73
2024/01/01 02:58:50;;;;;;;9.57;4.97;;;7.00;99.90;;;;;;5030737;28;20175;-73
2024/01/01 03:01:15;;;;;;;11.07;5.30;;;7.00;99.90;;;;;;5031094;28;20175;-73
2024/01/01 03:03:41;;;;;;;16.70;4.90;;;7.00;99.90;;;;;;5030977;28;20564;-73
2024/01/01 03:06:07;;;;;;;10.50;5.07;;;7.20;99.90;;;;;;5031034;28;20259;-74
2024/01/01 03:08:36;;;;;;;11.23;5.93;;;7.00;99.90;;;;;;5041811;28;20639;-74
2024/01/01 03:11:03;;;;;;;13.87;4.57;;;7.10;99.90;;;;;;5050575;28;20237;-73
2024/01/01 03:13:29;;;;;;;15.17;4.97;;;7.10;99.90;;;;;;5050768;28;20658;-73
2024/01/01 03:15:55;;;;;;;8.60;4.10;;;7.20;99.90;;;;;;5050712;28;20200;-74
2024/01/01 03:18:21;;;;;;;14.83;4.83;;;7.20;99.90;;;;;;5051107;28;20169;-73
2024/01/01 03:20:46;;;;;;;14.83;5.90;;;7.30;99.90;;;;;;5034125;28;20196;-73
2024/01/01 03:23:12;;;;;;;10.60;4.83;;;7.20;99.90;;;;;;5030863;28;20180;-73
2024/01/01 03:25:38;;;;;;;12.57;5.57;;;7.20;99.90;;;;;;5030985;28;20191;-73
2024/01/01 03:28:03;;;;;;;15.43;4.87;;;7.20;99.90;;;;;;5031571;28;20164;-73
2024/01/01 03:30:29;;;;;;;19.10;5.83;;;7.20;99.90;;;;;;5033398;28;20171;-73
2024/01/01 03:32:55;;;;;;;11.83;5.43;;;7.30;99.90;;;;;;5034075;28;20203;-74
2024/01/01 03:35:20;;;;;;;10.10;5.20;;;7.30;99.90;;;;;;5043970;28;20572;-73
2024/01/01 03:37:46;;;;;;;10.77;4.70;;;7.30;99.90;;;;;;5049856;28;20534;-73
2024/01/01 03:40:12;;;;;;;15.70;5.13;;;7.30;99.90;;;;;;5049859;28;20868;-73
2024/01/01 03:42:38;;;;;;;14.63;4.90;;;7.40;99.90;;;;;;5049752;28;20583;-72
2024/01/01 03:45:04;;;;;;;13.27;5.67;;;7.40;99.90;;;;;;5050042;28;20191;-73
2024/01/01 03:47:32;;;;;;;11.97;4.87;;;7.40;99.90;;;;;;5048760;28;20201;-72
2024/01/01 03:49:58;;;;;;;14.03;5.33;;;7.40;99.90;;;;;;5036054;28;20642;-73
2024/01/01 03:52:24;;;;;;;12.13;5.30;;;7.40;99.90;;;;;;5030240;28;20180;-73
2024/01/01 03:54:50;;;;;;;11.43;5.03;;;7.50;99.90;;;;;;5030626;28;20493;-72
2024/01/01 03:57:16;;;;;;;10.10;5.17;;;7.50;99.90;;;;;;5030352;28;20602;-73
2024/01/01 03:59:42;;;;;;;11.40;4.83;;;7.70;99.90;;;;;;5031948;28;20282;-73
2024/01/01 04:02:09;;;;;;;15.53;4.90;;;7.70;99.90;;;;;;5040807;28;20520;-73
2024/01/01 04:04:36;;;;;;;13.33;5.30;;;7.80;99.90;;;;;;5053950;28;20619;-72
2024/01/01 04:07:01;;;;;;;8.70;5.07;;;7.90;99.90;;;;;;5050918;28;20178;-73
2024/01/01 04:09:27;;;;;;;9.10;4.90;;;7.90;99.90;;;;;;5033624;28;20167;-73
2024/01/01 04:11:52;;;;;;;11.43;5.27;;;7.90;99.90;;;;;;5033881;28;20171;-73
2024/01/01 04:14:18;;;;;;;16.70;5.00;;;8.10;99.90;;;;;;5033929;28;20194;-72
2024/01/01 04:16:43;;;;;;;12.00;5.23;;;8.20;99.90;;;;;;5033341;28;20215;-73
2024/01/01 04:19:09;;;;;;;7.37;4.57;;;8.30;99.90;;;;;;5033604;28;20195;-72
2024/01/01 04:21:39;;;;;;;10.37;4.70;;;8.30;99.90;;;;;;5033658;28;20663;-73
2024/01/01 04:24:06;;;;;;;13.97;5.03;;;8.40;99.90;;;;;;5053753;28;20182;-72
2024/01/01 04:26:32;;;;;;;6.87;5.67;;;8.40;99.90;;;;;;5053490;28;20191;-73
2024/01/01 04:28:57;;;;;;;7.73;4.70;;;8.40;99.90;;;;;;5053335;28;20178;-72
2024/01/01 04:31:23;;;;;;;11.53;5.63;;;8.40;99.90;;;;;;5053487;28;20171;-73
2024/01/01 04:33:48;;;;;;;11.53;4.90;;;8.30;99.90;;;;;;5049132;28;20179;-73
2024/01/01 04:36:14;;;;;;;12.50;4.90;;;8.30;99.90;;;;;;5032992;28;20202;-73
2024/01/01 04:38:40;;;;;;;13.83;4.87;;;8.20;99.90;;;;;;5015745;28;20241;-73
2024/01/01 04:41:07;;;;;;;9.13;4.70;;;8.20;99.90;;;;;;5033485;28;20290;-72
2024/01/01 04:43:32;;;;;;;10.87;4.87;;;8.20;99.90;;;;;;5033338;28;20179;-73
2024/01/01 04:45:58;;;;;;;13.77;5.40;;;8.20;99.90;;;;;;5033226;28;20187;-73
2024/01/01 04:48:23;;;;;;;11.03;5.80;;;8.20;99.90;;;;;;5035193;28;20184;-72
2024/01/01 04:50:49;;;;;;;8.43;5.20;;;8.20;99.90;;;;;;5053048;28;20174;-73
2024/01/01 04:53:15;;;;;;;13.00;5.10;;;8.30;99.90;;;;;;5053694;28;20182;-73
2024/01/01 04:55:40;;;;;;;12.87;5.23;;;8.30;99.90;;;;;;5054011;28;20677;-73
2024/01/01 04:58:06;;;;;;;7.63;4.90;;;8.20;99.90;;;;;;5052931;28;20175;-73
2024/01/01 05:00:31;;;;;;;11.40;6.23;;;8.20;99.90;;;;;;5052819;28;20733;-73
2024/01/01 05:02:57;;;;;;;8.00;4.70;;;8.20;99.90;;;;;;5020035;28;20409;-73
2024/01/01 05:05:23;;;;;;;11.03;4.90;;;8.20;99.90;;;;;;5032294;28;20191;-73
2024/01/01 05:07:51;;;;;;;10.03;4.67;;;8.20;99.90;;;;;;5015073;28;20175;-72
2024/01/01 05:10:17;;;;;;;9.67;4.83;;;8.20;99.90;;;;;;5032694;28;20203;-72
2024/01/01 05:12:44;;;;;;;12.00;5.80;;;8.20;99.90;;;;;;5032945;28;20179;-73
2024/01/01 05:15:11;;;;;;;11.20;5.50;;;8.30;99.90;;;;;;5037001;28;20285;-72
2024/01/01 05:17:37;;;;;;;10.40;4.80;;;8.30;99.90;;;;;;5052452;28;20220;-72
2024/01/01 05:20:03;;;;;;;11.47;4.53;;;8.30;99.90;;;;;;5052519;28;20229;-72
2024/01/01 05:22:30;;;;;;;13.97;5.20;;;8.30;99.90;;;;;;5052091;28;20190;-73
2024/01/01 05:24:56;;;;;;;12.67;4.40;;;8.30;99.90;;;;;;5051204;28;20262;-72
2024/01/01 05:27:21;;;;;;;9.70;4.70;;;8.30;99.90;;;;;;5046925;28;20287;-72
2024/01/01 05:29:47;;;;;;;11.17;5.13;;;8.20;99.90;;;;;;5031456;28;20180;-72
2024/01/01 05:32:13;;;;;;;11.97;5.03;;;8.10;99.90;;;;;;5031405;28;20179;-72
2024/01/01 05:34:41;;;;;;;12.90;5.43;;;8.10;99.90;;;;;;5031562;28;20198;-72
2024/01/01 05:37:06;;;;;;;7.13;4.93;;;8.10;99.90;;;;;;5032120;28;20663;-73
2024/01/01 05:39:32;;;;;;;18.67;4.73;;;8.10;99.90;;;;;;5032429;28;20254;-73
2024/01/01 05:41:58;;;;;;;10.33;5.10;;;8.20;99.90;;;;;;5032317;28;20175;-72
2024/01/01 05:44:23;;;;;;;17.27;12.07;;;8.30;99.90;;;;;;5032042;28;20172;-71
2024/01/01 05:46:49;;;;;;;20.43;17.57;;;8.30;99.90;;;;;;5031700;28;20206;-72
2024/01/01 05:49:15;;;;;;;14.20;8.30;;;8.40;99.90;;;;;;5032115;28;20167;-72
2024/01/01 05:51:41;;;;;;;11.73;5.17;;;8.40;99.90;;;;;;5032209;28;20519;-72
2024/01/01 05:54:06;;;;;;;15.30;5.70;;;8.50;99.90;;;;;;5032126;28;20254;-73
2024/01/01 05:56:32;;;;;;;9.20;6.13;;;8.50;99.90;;;;;;5031681;28;20278;-72
2024/01/01 05:58:58;;;;;;;13.17;6.07;;;8.50;99.90;;;;;;5031656;28;20539;-72
2024/01/01 06:01:23;;;;;;;14.27;6.27;;;8.50;99.90;;;;;;5031979;28;20179;-73
2024/01/01 06:03:49;;;;;;;12.87;5.10;;;8.40;99.90;;;;;;5031606;28;20163;-73
2024/01/01 06:06:15;;;;;;;15.30;4.97;;;8.50;99.90;;;;;;5031396;28;20183;-73
2024/01/01 06:08:40;;;;;;;12.83;4.73;;;8.50;99.90;;;;;;5031791;28;20226;-72
2024/01/01 06:11:06;;;;;;;11.83;5.67;;;8.50;99.90;;;;;;5031664;28;20179;-72
2024/01/01 06:13:32;;;;;;;13.00;5.67;;;8.50;99.90;;;;;;5031466;28;20608;-73
2024/01/01 06:15:58;;;;;;;9.60;7.17;;;8.50;99.90;;;;;;5031541;28;20210;-71
2024/01/01 06:18:25;;;;;;;10.07;5.37;;;8.50;99.90;;;;;;5032312;28;20210;-73
2024/01/01 06:20:51;;;;;;;15.07;6.63;;;8.40;99.90;;;;;;5038531;28;20289;-72
2024/01/01 06:23:17;;;;;;;10.57;5.03;;;8.30;99.90;;;;;;5050919;28;20171;-72
2024/01/01 06:25:42;;;;;;;11.07;5.37;;;8.30;99.90;;;;;;5051001;28;20662;-73
2024/01/01 06:28:08;;;;;;;8.40;5.27;;;8.30;99.90;;;;;;5051195;28;20178;-74
2024/01/01 06:30:34;;;;;;;12.33;6.97;;;8.30;99.90;;;;;;5051400;28;20190;-73
2024/01/01 06:33:04;;;;;;;17.03;6.67;;;8.30;99.90;;;;;;5051227;28;20171;-72
2024/01/01 06:35:30;;;;;;;11.70;5.90;;;8.40;99.90;;;;;;5050585;28;20206;-73
2024/01/01 06:37:59;;;;;;;14.13;7.23;;;8.40;99.90;;;;;;5051043;28;20646;-72
2024/01/01 06:40:25;;;;;;;11.70;6.30;;;8.40;99.90;;;;;;5051006;28;20199;-73
2024/01/01 06:42:50;;;;;;;13.17;5.23;;;8.40;99.90;;;;;;5050749;28;20230;-71
2024/01/01 06:45:16;;;;;;;10.60;4.70;;;8.40;99.90;;;;;;5050878;28;20210;-71
2024/01/01 06:47:43;;;;;;;11.10;5.13;;;8.40;99.90;;;;;;5051368;28;20182;-72
2024/01/01 06:50:09;;;;;;;13.73;5.50;;;8.40;99.90;;;;;;5031953;28;20266;-72
2024/01/01 06:52:34;;;;;;;12.97;5.73;;;8.40;99.90;;;;;;5030733;28;20179;-72
2024/01/01 06:55:00;;;;;;;13.77;4.47;;;8.30;99.90;;;;;;5030876;28;20195;-72
2024/01/01 06:57:26;;;;;;;11.57;4.73;;;8.30;99.90;;;;;;5030840;28;20179;-72
2024/01/01 06:59:51;;;;;;;14.20;5.27;;;8.30;99.90;;;;;;5031039;28;20199;-71
2024/01/01 07:02:17;;;;;;;13.17;4.20;;;8.30;99.90;;;;;;5044620;28;20240;-72
2024/01/01 07:04:43;;;;;;;10.27;4.33;;;8.30;99.90;;;;;;5051019;28;20533;-72
2024/01/01 07:07:10;;;;;;;8.23;4.70;;;8.30;99.90;;;;;;5050708;28;20257;-72
2024/01/01 07:09:36;;;;;;;10.23;5.30;;;8.30;99.90;;;;;;5051079;28;20194;-72
2024/01/01 07:12:18;;;;;;;9.97;5.63;;;8.30;99.90;;;;;;5051004;28;20175;-71
2024/01/01 07:14:43;;;;;;;9.90;5.53;;;8.20;99.90;;;;;;5050926;28;20241;-72
2024/01/01 07:17:09;;;;;;;6.57;4.87;;;8.30;99.90;;;;;;5035935;28;20218;-72
2024/01/01 07:19:35;;;;;;;14.97;5.63;;;8.30;99.90;;;;;;5030631;28;20568;-72
2024/01/01 07:22:01;;;;;;;10.07;5.40;;;8.30;99.90;;;;;;5030697;28;20192;-73
2024/01/01 07:24:27;;;;;;;10.67;4.70;;;8.30;99.90;;;;;;5030684;28;20176;-74
2024/01/01 07:26:52;;;;;;;18.13;5.17;;;8.20;99.90;;;;;;5030673;28;20164;-74
2024/01/01 07:29:18;;;;;;;13.93;5.37;;;8.20;99.90;;;;;;5043126;28;20287;-72
2024/01/01 07:31:43;;;;;;;7.00;3.97;;;8.20;99.90;;;;;;5050471;28;20175;-71
2024/01/01 07:34:09;;;;;;;8.67;4.80;;;8.20;99.90;;;;;;5051082;28;20519;-73
2024/01/01 07:36:35;;;;;;;9.40;4.70;;;8.20;99.90;;;;;;5054087;28;20727;-72
2024/01/01 07:39:00;;;;;;;7.40;4.60;;;8.20;99.90;;;;;;5054457;28;20546;-71
2024/01/01 07:41:26;;;;;;;9.67;5.00;;;8.20;99.90;;;;;;5055251;28;20544;-72
2024/01/01 07:43:52;;;;;;;9.80;4.90;;;8.30;99.90;;;;;;5052455;28;20186;-72
2024/01/01 07:46:17;;;;;;;13.40;5.13;;;8.20;99.90;;;;;;5054048;28;20191;-72
2024/01/01 07:48:43;;;;;;;8.83;4.83;;;8.10;99.90;;;;;;5054113;28;20193;-72
2024/01/01 07:51:09;;;;;;;13.57;4.67;;;8.10;99.90;;;;;;5054180;28;20221;-72
2024/01/01 07:53:34;;;;;;;8.67;4.97;;;8.10;99.90;;;;;;5053746;28;20174;-71
2024/01/01 07:56:01;;;;;;;7.87;4.43;;;8.10;99.90;;;;;;5053199;28;20195;-72
2024/01/01 07:58:27;;;;;;;4.67;4.17;;;8.10;99.90;;;;;;5038244;28;20218;-72
2024/01/01 08:00:55;;;;;;;6.90;4.73;;;8.00;99.90;;;;;;5033021;28;20616;-71
2024/01/01 08:03:21;;;;;;;9.43;4.83;;;8.00;99.90;;;;;;5044374;28;20258;-70
2024/01/01 08:05:46;;;;;;;4.83;4.33;;;8.00;99.90;;;;;;5032634;28;20195;-71
2024/01/01 08:08:12;;;;;;;8.03;4.03;;;7.90;99.90;;;;;;5032886;28;20549;-72
2024/01/01 08:10:38;;;;;;;6.27;3.97;;;7.80;99.90;;;;;;5033824;28;20214;-71
2024/01/01 08:13:04;;;;;;;7.47;3.90;;;7.70;99.90;;;;;;5032842;28;20176;-73
2024/01/01 08:15:29;;;;;;;7.57;4.00;;;7.70;99.90;;;;;;5032341;28;20199;-71
2024/01/01 08:17:55;;;;;;;4.80;4.20;;;7.70;99.90;;;;;;5032609;28;20183;-71
2024/01/01 08:20:20;;;;;;;5.80;4.00;;;7.70;99.90;;;;;;5033112;28;20218;-71
2024/01/01 08:22:47;;;;;;;5.03;4.23;;;7.70;99.90;;;;;;5034155;28;20183;-71
2024/01/01 08:25:12;;;;;;;5.77;3.43;;;7.70;99.90;;;;;;5033293;28;20192;-71
2024/01/01 08:27:38;;;;;;;4.27;3.90;;;7.70;99.90;;;;;;5033859;28;20191;-70
2024/01/01 08:30:06;;;;;;;6.50;3.77;;;7.70;99.90;;;;;;5032664;28;20184;-71
2024/01/01 08:32:32;;;;;;;5.07;3.80;;;7.80;99.90;;;;;;5032251;28;20180;-71
2024/01/01 08:34:58;;;;;;;5.90;3.90;;;7.80;99.90;;;;;;5032330;28;20199;-70
2024/01/01 08:37:24;;;;;;;5.97;4.00;;;7.80;99.90;;;;;;5032204;28;20190;-71
2024/01/01 08:39:49;;;;;;;4.97;3.50;;;7.90;99.90;;;;;;5027297;28;20670;-70
2024/01/01 08:42:15;;;;;;;3.87;3.40;;;7.90;99.90;;;;;;5050497;28;20171;-71
2024/01/01 08:44:40;;;;;;;4.50;3.93;;;8.00;99.90;;;;;;5031998;28;20179;-71
2024/01/01 08:47:06;;;;;;;5.30;3.83;;;8.00;99.90;;;;;;5032357;28;20171;-70
2024/01/01 08:49:32;;;;;;;7.97;4.17;;;7.90;99.90;;;;;;5033017;28;20213;-70
2024/01/01 08:51:57;;;;;;;5.53;3.80;;;7.90;99.90;;;;;;5032208;28;20222;-70
2024/01/01 08:54:23;;;;;;;4.03;3.23;;;8.00;99.90;;;;;;5014626;28;20186;-71
2024/01/01 08:56:49;;;;;;;5.50;3.70;;;8.00;99.90;;;;;;5032034;28;20544;-70
2024/01/01 08:59:16;;;;;;;3.97;3.37;;;8.10;99.90;;;;;;5032021;28;20172;-71
2024/01/01 09:01:45;;;;;;;6.73;3.73;;;8.10;99.90;;;;;;5032247;28;20179;-71
2024/01/01 09:04:11;;;;;;;3.77;3.40;;;8.20;99.90;;;;;;5044849;28;20213;-71
2024/01/01 09:06:37;;;;;;;5.50;3.50;;;8.30;99.90;;;;;;5040398;28;20609;-70
2024/01/01 09:09:03;;;;;;;5.33;3.60;;;8.40;99.90;;;;;;5051781;28;20179;-72
2024/01/01 09:11:28;;;;;;;6.83;4.03;;;8.50;99.90;;;;;;5047118;28;20203;-71
2024/01/01 09:13:54;;;;;;;5.00;3.80;;;8.60;99.90;;;;;;5046802;28;20195;-71
2024/01/01 09:16:19;;;;;;;11.17;4.13;;;8.70;99.90;;;;;;5052159;28;20198;-72
2024/01/01 09:18:45;;;;;;;4.77;4.20;;;8.70;99.90;;;;;;5052286;28;20178;-70
2024/01/01 09:21:15;;;;;;;4.07;3.67;;;8.70;99.90;;;;;;5049039;28;20199;-72
2024/01/01 09:23:41;;;;;;;5.23;3.73;;;8.60;99.90;;;;;;5029487;28;20563;-71
2024/01/01 09:26:07;;;;;;;5.03;3.57;;;8.60;99.90;;;;;;5051894;28;20195;-72
2024/01/01 09:28:33;;;;;;;7.53;3.73;;;8.50;99.90;;;;;;5052356;28;20175;-72
2024/01/01 09:30:59;;;;;;;5.00;3.43;;;8.40;99.90;;;;;;5051991;28;20583;-72
2024/01/01 09:33:25;;;;;;;4.43;3.70;;;8.30;99.90;;;;;;5033902;28;20188;-72
2024/01/01 09:35:52;;;;;;;6.30;3.90;;;8.30;99.90;;;;;;5032185;28;20195;-73
2024/01/01 09:38:18;;;;;;;5.30;3.57;;;8.40;99.90;;;;;;5031629;28;20175;-72
2024/01/01 09:40:45;;;;;;;4.50;3.70;;;8.40;99.90;;;;;;5031701;28;20703;-71
2024/01/01 09:43:17;;;;;;;3.67;3.37;;;8.30;99.90;;;;;;5046836;28;20178;-71
2024/01/01 09:45:46;;;;;;;6.60;3.73;;;8.30;99.90;;;;;;5051568;28;20591;-73
2024/01/01 09:48:12;;;;;;;5.73;4.20;;;8.30;99.90;;;;;;5051880;28;20183;-72
2024/01/01 09:50:37;;;;;;;8.13;4.30;;;8.30;99.90;;;;;;5051885;28;20257;-70
2024/01/01 09:53:03;;;;;;;6.10;3.70;;;8.30;99.90;;;;;;5051469;28;20193;-71
2024/01/01 09:55:30;;;;;;;7.47;4.00;;;8.30;99.90;;;;;;5051093;28;20195;-71
2024/01/01 09:57:55;;;;;;;8.13;4.47;;;8.40;99.90;;;;;;5035293;28;20187;-71
2024/01/01 10:00:22;;;;;;;7.47;4.97;;;8.40;99.90;;;;;;5030730;28;20199;-71
2024/01/01 10:02:48;;;;;;;10.13;4.10;;;8.50;99.90;;;;;;5031217;28;20654;-71
2024/01/01 10:05:15;;;;;;;7.60;3.80;;;8.50;99.90;;;;;;5030710;28;20187;-72
2024/01/01 10:07:41;;;;;;;7.30;4.57;;;8.60;99.90;;;;;;5043379;28;20206;-70
2024/01/01 10:10:08;;;;;;;7.50;4.30;;;8.60;99.90;;;;;;5051127;28;20186;-70
2024/01/01 10:12:33;;;;;;;5.47;4.20;;;8.60;99.90;;;;;;5050717;28;20187;-70
2024/01/01 10:14:59;;;;;;;10.10;4.47;;;8.60;99.90;;;;;;5051234;28;20666;-71
2024/01/01 10:17:25;;;;;;;6.43;4.13;;;8.70;99.90;;;;;;5050759;28;20555;-71
2024/01/01 10:19:52;;;;;;;4.67;3.70;;;8.70;99.90;;;;;;5032119;28;20207;-73
2024/01/01 10:22:19;;;;;;;4.80;3.87;;;8.80;99.90;;;;;;5050491;28;20556;-71
2024/01/01 10:24:48;;;;;;;5.13;4.47;;;8.80;99.90;;;;;;5049665;28;20195;-71
2024/01/01 10:27:22;;;;;;;7.83;4.40;;;8.90;99.90;;;;;;5050000;28;20173;-71
2024/01/01 10:29:48;;;;;;;8.80;4.47;;;8.90;99.90;;;;;;5051244;28;20197;-71
2024/01/01 10:32:18;;;;;;;6.40;3.67;;;9.00;99.90;;;;;;5030738;28;20220;-71
2024/01/01 10:34:47;;;;;;;7.03;4.33;;;9.00;99.90;;;;;;5031177;28;20206;-72
2024/01/01 10:37:20;;;;;;;4.47;3.80;;;9.00;99.90;;;;;;5030944;28;20176;-71
2024/01/01 10:39:47;;;;;;;7.03;4.00;;;9.00;99.90;;;;;;5031028;28;20199;-71
2024/01/01 10:42:13;;;;;;;5.77;4.00;;;9.00;99.90;;;;;;5031984;28;20210;-72
2024/01/01 10:44:39;;;;;;;3.97;3.57;;;9.00;99.90;;;;;;5039444;28;20190;-71
2024/01/01 10:47:09;;;;;;;3.77;3.47;;;9.10;99.90;;;;;;5048441;28;20542;-72
2024/01/01 10:49:38;;;;;;;7.70;3.87;;;9.20;99.90;;;;;;5050541;28;20171;-71
2024/01/01 10:52:06;;;;;;;9.43;4.23;;;9.30;99.90;;;;;;5050115;28;20182;-71
2024/01/01 10:55:11;;;;;;;5.50;3.90;;;9.60;99.90;;;;;;5050174;28;20529;-71
2024/01/01 10:58:12;;;;;;;7.90;3.90;;;9.80;99.90;;;;;;5050066;28;20182;-71
2024/01/01 11:00:46;;;;;;;5.57;3.67;;;9.80;99.90;;;;;;5041691;28;20218;-70
2024/01/01 11:03:16;;;;;;;6.37;3.57;;;9.90;99.90;;;;;;5032230;28;20728;-71
2024/01/01 11:05:42;;;;;;;6.67;3.70;;;9.90;99.90;;;;;;5030660;28;20194;-71
2024/01/01 11:08:08;;;;;;;8.73;3.83;;;10.00;99.90;;;;;;5035497;28;20245;-71
2024/01/01 11:10:42;;;;;;;5.80;3.60;;;10.10;99.90;;;;;;5054442;28;20177;-72
2024/01/01 11:13:12;;;;;;;6.53;3.40;;;10.20;99.90;;;;;;5054655;28;20709;-71
2024/01/01 11:15:47;;;;;;;6.67;3.30;;;10.10;99.90;;;;;;5054460;28;20609;-71
2024/01/01 11:18:18;;;;;;;8.67;4.17;;;10.00;99.90;;;;;;5036984;28;20189;-71
2024/01/01 11:20:50;;;;;;;5.10;3.87;;;9.80;99.90;;;;;;5034053;28;20277;-71
2024/01/01 11:23:43;;;;;;;7.30;4.03;;;9.70;99.90;;;;;;5034066;28;20254;-71
2024/01/01 11:26:27;;;;;;;6.00;5.37;;;9.40;99.90;;;;;;5033990;28;20216;-72
2024/01/01 11:28:55;;;;;;;4.87;3.93;;;9.30;99.90;;;;;;5033880;28;20187;-71
2024/01/01 11:31:22;;;;;;;5.40;3.77;;;9.20;99.90;;;;;;5037763;28;20210;-71
2024/01/01 11:34:03;;;;;;;4.17;3.70;;;9.20;99.90;;;;;;5053596;28;20398;-70
2024/01/01 11:36:29;;;;;;;7.30;3.90;;;9.20;99.90;;;;;;5048045;28;20187;-71
2024/01/01 11:38:56;;;;;;;6.53;4.27;;;9.20;99.90;;;;;;5034856;28;20183;-71
2024/01/01 11:41:26;;;;;;;6.47;3.83;;;9.30;99.90;;;;;;5034358;28;20582;-71
2024/01/01 11:43:52;;;;;;;10.50;3.83;;;9.30;99.90;;;;;;5034246;28;20206;-71
2024/01/01 11:46:28;;;;;;;5.60;3.70;;;9.20;99.90;;;;;;5016476;28;20741;-71
2024/01/01 11:49:01;;;;;;;7.23;3.80;;;9.20;99.90;;;;;;5034237;28;20648;-71
2024/01/01 11:51:32;;;;;;;4.90;3.70;;;9.10;99.90;;;;;;5035943;28;20639;-71
2024/01/01 11:54:08;;;;;;;9.37;3.77;;;9.00;99.90;;;;;;5034464;28;20197;-71
2024/01/01 11:56:35;;;;;;;8.23;3.80;;;9.00;99.90;;;;;;5035148;28;20558;-71
2024/01/01 11:59:02;;;;;;;9.77;4.00;;;8.90;99.90;;;;;;5053554;28;20201;-71
2024/01/01 12:01:29;;;;;;;7.27;4.60;;;9.00;99.90;;;;;;5052504;28;20205;-71
2024/01/01 12:03:57;;;;;;;6.47;3.83;;;9.00;99.90;;;;;;5033537;28;20297;-71
2024/01/01 12:06:22;;;;;;;5.23;3.60;;;9.00;99.90;;;;;;5032958;28;20270;-71
2024/01/01 12:08:49;;;;;;;5.80;3.83;;;9.00;99.90;;;;;;5033223;28;20258;-71
2024/01/01 12:11:18;;;;;;;8.77;4.23;;;9.10;99.90;;;;;;5034148;28;20167;-71
2024/01/01 12:13:57;;;;;;;9.33;4.83;;;9.20;99.90;;;;;;5034799;28;20624;-71
2024/01/01 12:16:23;;;;;;;8.63;4.03;;;9.20;99.90;;;;;;5035200;28;20748;-71
2024/01/01 12:19:12;;;;;;;6.73;3.77;;;9.20;99.90;;;;;;5034051;28;20326;-71
2024/01/01 12:21:42;;;;;;;11.40;4.33;;;9.30;99.90;;;;;;5033143;28;20203;-71
2024/01/01 12:24:13;;;;;;;11.97;4.87;;;9.30;99.90;;;;;;5033295;28;20164;-71
2024/01/01 12:26:39;;;;;;;12.10;5.67;;;9.30;99.90;;;;;;5034626;28;20682;-71
2024/01/01 12:29:07;;;;;;;8.80;4.50;;;9.30;99.90;;;;;;5033640;28;20168;-70
2024/01/01 12:31:32;;;;;;;11.27;4.43;;;9.40;99.90;;;;;;5016187;28;20188;-71
2024/01/01 12:33:58;;;;;;;9.67;4.60;;;9.40;99.90;;;;;;5043859;28;20174;-71
2024/01/01 12:36:23;;;;;;;6.80;4.30;;;9.50;99.90;;;;;;5031596;28;20200;-71
2024/01/01 12:38:49;;;;;;;13.00;5.10;;;9.50;99.90;;;;;;5033198;28;20670;-71
2024/01/01 12:41:17;;;;;;;11.10;4.87;;;9.60;99.90;;;;;;5033967;28;20222;-71
2024/01/01 12:43:42;;;;;;;9.20;4.73;;;9.60;99.90;;;;;;5044160;28;20168;-71
2024/01/01 12:46:08;;;;;;;8.17;5.00;;;9.50;99.90;;;;;;5015193;28;20195;-71
2024/01/01 12:48:34;;;;;;;9.10;5.77;;;9.50;99.90;;;;;;5044750;28;20228;-71
2024/01/01 12:51:00;;;;;;;15.20;5.77;;;9.50;99.90;;;;;;5053259;28;20175;-71